Terminal Aerodrome Forecast
Issued by NWS

Home | Current Version | Previous Version | Text Only | Print | Product List | Glossary On
Versions: 1 2 3 4 5 6 7 8 9 10 11 12 13 14 15 16 17
491
FTUS43 KMQT 280521
TAFSAW
TAF
KSAW 280521Z 2806/2906 00000KT 5SM BR VCSH BKN080
     FM281100 00000KT P6SM VCSH BKN060
     FM281700 18007KT P6SM VCSH BKN050
     FM290000 22004KT P6SM BKN100=

USA.gov is the U.S. government's official web portal to all federal, state and local government web resources and services.